createdAt,value
2023-04-15T00:01:37.142Z,2.75
2023-04-15T00:04:04.714Z,2.90
2023-04-15T00:06:31.383Z,3.65
2023-04-15T00:08:58.087Z,2.15
2023-04-15T00:11:24.661Z,2.13
2023-04-15T00:13:51.429Z,2.70
2023-04-15T00:16:17.955Z,2.28
2023-04-15T00:18:44.442Z,2.88
2023-04-15T00:21:10.904Z,2.35
2023-04-15T00:23:37.277Z,2.72
2023-04-15T00:26:06.151Z,1.92
2023-04-15T00:28:35.385Z,2.08
2023-04-15T00:31:02.366Z,1.88
2023-04-15T00:33:28.874Z,2.10
2023-04-15T00:35:55.330Z,2.38
2023-04-15T00:38:21.885Z,2.45
2023-04-15T00:40:48.334Z,3.05
2023-04-15T00:43:17.651Z,2.70
2023-04-15T00:45:44.081Z,2.97
2023-04-15T00:48:13.630Z,3.90
2023-04-15T00:50:40.073Z,2.72
2023-04-15T00:53:07.008Z,2.90
2023-04-15T00:55:33.801Z,3.00
2023-04-15T00:58:00.272Z,2.70
2023-04-15T01:00:27.238Z,2.50
2023-04-15T01:02:56.072Z,2.45
2023-04-15T01:05:27.724Z,2.17
2023-04-15T01:07:57.343Z,2.73
2023-04-15T01:10:23.864Z,2.22
2023-04-15T01:12:50.347Z,2.20
2023-04-15T01:15:16.956Z,2.45
2023-04-15T01:17:43.528Z,2.67
2023-04-15T01:20:11.597Z,2.58
2023-04-15T01:22:39.311Z,2.72
2023-04-15T01:25:14.132Z,2.88
2023-04-15T01:27:42.266Z,2.65
2023-04-15T01:30:09.523Z,2.28
2023-04-15T01:32:36.867Z,2.33
2023-04-15T01:35:05.950Z,2.50
2023-04-15T01:37:35.869Z,2.10
2023-04-15T01:40:03.405Z,2.85
2023-04-15T01:42:32.616Z,2.83
2023-04-15T01:44:59.101Z,2.10
2023-04-15T01:47:25.867Z,2.85
2023-04-15T01:49:52.245Z,2.08
2023-04-15T01:52:18.734Z,2.55
2023-04-15T01:54:45.221Z,2.78
2023-04-15T01:57:11.575Z,2.25
2023-04-15T01:59:38.258Z,2.65
2023-04-15T02:02:05.458Z,2.88
2023-04-15T02:04:32.624Z,2.47
2023-04-15T02:06:59.129Z,2.80
2023-04-15T02:09:25.701Z,2.45
2023-04-15T02:11:53.889Z,2.80
2023-04-15T02:14:20.304Z,2.78
2023-04-15T02:16:46.824Z,2.58
2023-04-15T02:19:13.928Z,2.78
2023-04-15T02:21:40.315Z,2.15
2023-04-15T02:24:07.091Z,2.78
2023-04-15T02:26:33.614Z,2.25
2023-04-15T02:29:00.866Z,2.70
2023-04-15T02:31:27.680Z,2.58
2023-04-15T02:33:54.218Z,2.58
2023-04-15T02:36:23.900Z,2.78
2023-04-15T02:38:50.715Z,2.40
2023-04-15T02:41:17.553Z,2.72
2023-04-15T02:43:44.016Z,2.90
2023-04-15T02:46:14.637Z,2.70
2023-04-15T02:48:41.700Z,2.80
2023-04-15T02:51:12.606Z,2.03
2023-04-15T02:53:39.129Z,2.60
2023-04-15T02:56:06.617Z,3.30
2023-04-15T02:58:34.743Z,4.82
2023-04-15T03:01:01.685Z,3.65
2023-04-15T03:03:28.737Z,4.78
2023-04-15T03:05:55.202Z,4.00
2023-04-15T03:08:24.228Z,2.83
2023-04-15T03:10:52.570Z,3.38
2023-04-15T03:13:19.470Z,3.90
2023-04-15T03:15:51.385Z,3.85
2023-04-15T03:18:17.909Z,3.80
2023-04-15T03:20:44.372Z,3.88
2023-04-15T03:23:11.121Z,4.30
2023-04-15T03:25:37.676Z,3.72
2023-04-15T03:28:04.210Z,3.63
2023-04-15T03:30:30.796Z,3.17
2023-04-15T03:32:57.285Z,3.38
2023-04-15T03:35:25.997Z,3.53
2023-04-15T03:37:52.572Z,2.80
2023-04-15T03:40:23.929Z,2.58
2023-04-15T03:42:52.762Z,2.75
2023-04-15T03:45:21.381Z,3.15
2023-04-15T03:47:49.764Z,2.92
2023-04-15T03:50:16.380Z,2.42
2023-04-15T03:52:42.807Z,2.25
2023-04-15T03:55:09.815Z,2.42
2023-04-15T03:57:38.962Z,2.92
2023-04-15T04:00:06.289Z,2.80
2023-04-15T04:02:32.879Z,2.55
2023-04-15T04:04:59.395Z,2.28
2023-04-15T04:07:25.909Z,2.58
2023-04-15T04:09:52.424Z,2.25
2023-04-15T04:12:18.833Z,2.15
2023-04-15T04:14:45.689Z,3.10
2023-04-15T04:17:15.156Z,2.83
2023-04-15T04:19:43.737Z,3.30
2023-04-15T04:22:10.537Z,3.03
2023-04-15T04:24:37.023Z,2.50
2023-04-15T04:27:03.634Z,3.90
2023-04-15T04:29:30.100Z,2.65
2023-04-15T04:32:01.510Z,2.50
2023-04-15T04:34:28.028Z,2.90
2023-04-15T04:36:54.471Z,2.67
2023-04-15T04:39:20.831Z,3.00
2023-04-15T04:41:47.290Z,2.45
2023-04-15T04:44:13.677Z,2.45
2023-04-15T04:46:40.069Z,2.58
2023-04-15T04:49:06.935Z,2.83
2023-04-15T04:51:33.451Z,2.10
2023-04-15T04:54:03.663Z,2.67
2023-04-15T04:56:30.357Z,2.72
2023-04-15T04:58:57.202Z,2.30
2023-04-15T05:01:23.719Z,3.20
2023-04-15T05:03:50.431Z,3.20
2023-04-15T05:06:16.865Z,1.90
2023-04-15T05:08:43.226Z,2.95
2023-04-15T05:11:09.680Z,2.42
2023-04-15T05:13:38.636Z,2.42
2023-04-15T05:16:06.042Z,3.10
2023-04-15T05:18:32.524Z,3.05
2023-04-15T05:21:02.608Z,3.30
2023-04-15T05:23:29.234Z,3.55
2023-04-15T05:25:55.739Z,3.40
2023-04-15T05:28:22.152Z,3.20
2023-04-15T05:30:48.814Z,3.25
2023-04-15T05:33:15.804Z,3.33
2023-04-15T05:35:42.200Z,3.33
2023-04-15T05:38:10.957Z,4.15
2023-04-15T05:40:37.570Z,3.53
2023-04-15T05:43:03.975Z,3.80
2023-04-15T05:45:30.442Z,3.88
2023-04-15T05:47:56.911Z,3.67
2023-04-15T05:50:23.437Z,3.30
2023-04-15T05:52:49.926Z,3.42
2023-04-15T05:55:16.517Z,3.47
2023-04-15T05:57:42.913Z,3.67
2023-04-15T06:00:10.132Z,4.05
2023-04-15T06:02:37.028Z,3.20
2023-04-15T06:05:04.055Z,3.67
2023-04-15T06:07:30.882Z,3.42
2023-04-15T06:09:57.329Z,3.95
2023-04-15T06:12:23.697Z,3.28
2023-04-15T06:14:50.120Z,3.75
2023-04-15T06:17:18.400Z,3.63
2023-04-15T06:19:47.004Z,3.58
2023-04-15T06:22:13.541Z,3.83
2023-04-15T06:24:40.109Z,4.40
2023-04-15T06:27:07.117Z,3.70
2023-04-15T06:29:33.662Z,4.07
2023-04-15T06:32:00.575Z,4.43
2023-04-15T06:34:27.461Z,4.50
2023-04-15T06:36:54.795Z,4.40
2023-04-15T06:39:21.377Z,3.90
2023-04-15T06:41:48.184Z,4.25
2023-04-15T06:44:14.709Z,4.18
2023-04-15T06:46:41.382Z,4.00
2023-04-15T06:49:08.170Z,4.38
2023-04-15T06:51:36.073Z,4.80
2023-04-15T06:54:05.839Z,4.55
2023-04-15T06:56:33.307Z,4.07
2023-04-15T06:58:59.871Z,4.65
2023-04-15T07:01:26.660Z,4.60
2023-04-15T07:03:53.179Z,3.95
2023-04-15T07:06:19.863Z,4.38
2023-04-15T07:08:46.272Z,3.78
2023-04-15T07:11:15.216Z,4.05
2023-04-15T07:13:43.940Z,4.93
2023-04-15T07:16:10.370Z,4.82
2023-04-15T07:18:39.084Z,4.93
2023-04-15T07:21:05.726Z,3.15
2023-04-15T07:23:32.176Z,3.50
2023-04-15T07:26:01.546Z,4.53
2023-04-15T07:28:30.671Z,4.43
2023-04-15T07:30:59.475Z,4.35
2023-04-15T07:33:26.268Z,3.80
2023-04-15T07:35:52.627Z,4.32
2023-04-15T07:38:19.075Z,4.47
2023-04-15T07:40:46.790Z,4.32
2023-04-15T07:43:13.716Z,3.63
2023-04-15T07:45:40.271Z,3.97
2023-04-15T07:48:06.956Z,5.35
2023-04-15T07:50:33.481Z,3.25
2023-04-15T07:53:02.248Z,4.45
2023-04-15T07:55:30.552Z,4.18
2023-04-15T07:57:57.323Z,3.45
2023-04-15T08:00:28.746Z,4.15
2023-04-15T08:02:57.552Z,4.05
2023-04-15T08:05:24.040Z,2.90
2023-04-15T08:07:50.539Z,2.70
2023-04-15T08:10:17.289Z,3.33
2023-04-15T08:12:43.755Z,3.65
2023-04-15T08:15:10.558Z,3.80
2023-04-15T08:17:37.186Z,4.30
2023-04-15T08:20:04.655Z,4.05
2023-04-15T08:22:34.451Z,4.07
2023-04-15T08:25:00.933Z,7.95
2023-04-15T08:27:29.657Z,7.90
2023-04-15T08:30:03.398Z,9.02
2023-04-15T08:32:31.511Z,3.92
2023-04-15T08:35:00.669Z,3.47
2023-04-15T08:37:27.151Z,3.70
2023-04-15T08:39:58.524Z,4.93
2023-04-15T08:42:31.985Z,4.30
2023-04-15T08:45:00.143Z,5.03
2023-04-15T08:47:30.672Z,4.43
2023-04-15T08:49:58.119Z,4.63
2023-04-15T08:52:26.456Z,4.28
2023-04-15T08:54:56.727Z,5.22
2023-04-15T08:57:27.470Z,4.50
2023-04-15T08:59:57.037Z,4.82
2023-04-15T09:02:27.310Z,5.57
2023-04-15T09:04:54.366Z,7.00
2023-04-15T09:07:23.908Z,6.95
2023-04-15T09:09:51.406Z,5.88
2023-04-15T09:12:17.895Z,5.82
2023-04-15T09:14:49.528Z,3.47
2023-04-15T09:17:19.730Z,3.67
2023-04-15T09:19:46.134Z,5.55
2023-04-15T09:22:13.335Z,3.55
2023-04-15T09:24:40.948Z,2.75
2023-04-15T09:27:07.770Z,2.55
2023-04-15T09:29:34.425Z,2.83
2023-04-15T09:32:11.798Z,2.70
2023-04-15T09:34:38.427Z,3.08
2023-04-15T09:37:04.820Z,2.78
2023-04-15T09:39:49.918Z,4.38
2023-04-15T09:42:17.678Z,2.83
2023-04-15T09:44:44.420Z,2.88
2023-04-15T09:47:27.684Z,2.97
2023-04-15T09:49:58.587Z,4.25
2023-04-15T09:52:25.189Z,5.35
2023-04-15T09:54:56.521Z,3.13
2023-04-15T09:57:23.839Z,1.98
2023-04-15T09:59:52.885Z,3.53
2023-04-15T10:02:23.170Z,1.77
2023-04-15T10:04:53.703Z,1.90
2023-04-15T10:07:23.806Z,2.03
2023-04-15T10:09:50.373Z,1.92
2023-04-15T10:12:18.137Z,2.15
2023-04-15T10:14:49.354Z,2.03
2023-04-15T10:17:18.685Z,2.27
2023-04-15T10:19:46.659Z,2.20
2023-04-15T10:22:14.464Z,2.67
2023-04-15T10:24:45.368Z,2.70
2023-04-15T10:27:12.183Z,2.28
2023-04-15T10:29:39.015Z,2.50
2023-04-15T10:32:05.637Z,2.60
2023-04-15T10:34:32.594Z,2.83
2023-04-15T10:37:03.712Z,2.60
2023-04-15T10:39:33.195Z,3.20
2023-04-15T10:42:11.593Z,3.08
2023-04-15T10:44:39.330Z,2.97
2023-04-15T10:47:20.408Z,4.07
2023-04-15T10:49:58.130Z,3.25
2023-04-15T10:52:27.707Z,3.10
2023-04-15T10:55:16.307Z,2.83
2023-04-15T10:57:43.251Z,3.22
2023-04-15T11:00:12.087Z,3.17
2023-04-15T11:02:52.399Z,3.00
2023-04-15T11:05:21.395Z,2.15
2023-04-15T11:07:56.936Z,1.80
2023-04-15T11:10:26.255Z,1.85
2023-04-15T11:13:04.060Z,1.35
2023-04-15T11:15:37.999Z,1.73
2023-04-15T11:18:10.395Z,1.35
2023-04-15T11:20:38.166Z,1.67
2023-04-15T11:23:12.984Z,1.23
2023-04-15T11:25:41.748Z,0.80
2023-04-15T11:28:11.946Z,1.05
2023-04-15T11:30:39.899Z,1.20
2023-04-15T11:33:12.201Z,1.05
2023-04-15T11:35:41.899Z,2.28
2023-04-15T11:38:10.927Z,2.97
2023-04-15T11:40:40.987Z,6.10
2023-04-15T11:43:22.169Z,1.23
2023-04-15T11:45:55.871Z,1.60
2023-04-15T11:48:24.980Z,1.92
2023-04-15T11:51:05.288Z,1.42
2023-04-15T11:53:41.565Z,1.25
2023-04-15T11:56:10.126Z,1.20
2023-04-15T11:58:40.613Z,1.25
2023-04-15T12:01:07.466Z,1.63
2023-04-15T12:03:43.331Z,1.27
2023-04-15T12:06:23.509Z,1.10
2023-04-15T12:08:55.987Z,3.55
2023-04-15T12:11:31.342Z,1.85
2023-04-15T12:14:24.415Z,2.72
2023-04-15T12:16:58.160Z,3.47
2023-04-15T12:19:35.629Z,2.20
2023-04-15T12:22:11.375Z,2.50
2023-04-15T12:24:39.545Z,1.08
2023-04-15T12:27:08.767Z,1.45
2023-04-15T12:29:38.620Z,1.85
2023-04-15T12:32:16.576Z,3.08
2023-04-15T12:34:54.452Z,1.38
2023-04-15T12:37:21.160Z,1.02
2023-04-15T12:39:49.176Z,1.40
2023-04-15T12:42:17.322Z,1.25
2023-04-15T12:44:44.127Z,2.75
2023-04-15T12:47:11.740Z,4.00
2023-04-15T12:49:39.433Z,1.73
2023-04-15T12:52:06.169Z,1.10
2023-04-15T12:54:32.910Z,1.33
2023-04-15T12:56:59.940Z,1.00
2023-04-15T12:59:26.441Z,1.00
2023-04-15T13:01:53.965Z,1.05
2023-04-15T13:04:21.877Z,1.25
2023-04-15T13:06:48.735Z,5.90
2023-04-15T13:09:15.766Z,3.70
2023-04-15T13:11:42.359Z,2.00
2023-04-15T13:14:11.460Z,2.13
2023-04-15T13:16:40.502Z,3.08
2023-04-15T13:19:09.371Z,1.67
2023-04-15T13:21:36.366Z,2.60
2023-04-15T13:24:04.956Z,1.30
2023-04-15T13:26:32.087Z,2.28
2023-04-15T13:28:58.701Z,3.75
2023-04-15T13:31:25.480Z,1.08
2023-04-15T13:33:51.998Z,1.35
2023-04-15T13:36:18.603Z,2.60
2023-04-15T13:38:45.191Z,0.40
2023-04-15T13:41:11.723Z,1.40
2023-04-15T13:43:38.312Z,0.70
2023-04-15T13:46:05.021Z,3.50
2023-04-15T13:48:31.607Z,0.52
2023-04-15T13:50:58.053Z,2.30
2023-04-15T13:53:33.952Z,0.70
2023-04-15T13:56:10.595Z,0.85
2023-04-15T13:58:38.010Z,0.68
2023-04-15T14:01:06.807Z,0.63
2023-04-15T14:03:35.910Z,0.57
2023-04-15T14:06:02.709Z,0.63
2023-04-15T14:08:32.173Z,0.50
2023-04-15T14:10:58.857Z,0.60
2023-04-15T14:13:25.616Z,0.90
2023-04-15T14:15:52.199Z,0.60
2023-04-15T14:18:18.725Z,0.50
2023-04-15T14:20:45.201Z,0.85
2023-04-15T14:23:11.809Z,0.63
2023-04-15T14:25:39.398Z,0.38
2023-04-15T14:28:08.461Z,0.60
2023-04-15T14:30:35.219Z,0.57
2023-04-15T14:33:02.051Z,0.65
2023-04-15T14:35:30.933Z,2.97
2023-04-15T14:37:57.409Z,1.00
2023-04-15T14:40:26.011Z,0.80
2023-04-15T14:42:52.447Z,1.00
2023-04-15T14:45:19.089Z,0.70
2023-04-15T14:47:45.790Z,0.70
2023-04-15T14:50:12.400Z,0.88
2023-04-15T14:52:39.106Z,1.10
2023-04-15T14:55:07.674Z,1.05
2023-04-15T14:57:34.206Z,0.70
2023-04-15T15:00:00.677Z,0.93
2023-04-15T15:02:38.468Z,0.70
2023-04-15T15:05:09.060Z,1.02
2023-04-15T15:07:38.364Z,0.70
2023-04-15T15:10:06.033Z,0.77
2023-04-15T15:12:32.954Z,1.20
2023-04-15T15:15:00.459Z,0.77
2023-04-15T15:17:30.715Z,0.77
2023-04-15T15:19:57.520Z,0.90
2023-04-15T15:22:24.684Z,0.70
2023-04-15T15:24:51.105Z,0.80
2023-04-15T15:27:17.458Z,0.80
2023-04-15T15:29:43.919Z,1.75
2023-04-15T15:32:10.445Z,1.45
2023-04-15T15:34:37.018Z,0.95
2023-04-15T15:37:03.634Z,0.60
2023-04-15T15:39:30.403Z,0.60
2023-04-15T15:42:01.828Z,0.90
2023-04-15T15:44:28.249Z,1.02
2023-04-15T15:46:54.818Z,1.15
2023-04-15T15:49:21.328Z,0.93
2023-04-15T15:51:50.470Z,1.15
2023-04-15T15:54:17.738Z,1.17
2023-04-15T15:56:44.176Z,1.00
2023-04-15T15:59:10.837Z,1.20
2023-04-15T16:01:37.280Z,1.00
2023-04-15T16:04:04.096Z,1.02
2023-04-15T16:06:34.449Z,0.90
2023-04-15T16:09:02.256Z,1.13
2023-04-15T16:11:29.383Z,1.05
2023-04-15T16:13:56.054Z,1.65
2023-04-15T16:16:22.774Z,1.30
2023-04-15T16:18:49.179Z,0.80
2023-04-15T16:21:19.482Z,1.20
2023-04-15T16:23:46.151Z,1.20
2023-04-15T16:26:14.999Z,1.42
2023-04-15T16:28:41.631Z,1.10
2023-04-15T16:31:08.811Z,1.60
2023-04-15T16:33:37.556Z,1.13
2023-04-15T16:36:04.803Z,1.00
2023-04-15T16:38:31.607Z,1.33
2023-04-15T16:41:00.359Z,1.20
2023-04-15T16:43:27.850Z,1.20
2023-04-15T16:45:54.315Z,1.05
2023-04-15T16:48:21.266Z,1.00
2023-04-15T16:50:48.093Z,1.00
2023-04-15T16:53:18.078Z,1.15
2023-04-15T16:55:44.471Z,0.70
2023-04-15T16:58:11.116Z,0.80
2023-04-15T17:00:37.567Z,1.15
2023-04-15T17:03:05.693Z,0.80
2023-04-15T17:05:35.008Z,1.35
2023-04-15T17:08:01.624Z,1.02
2023-04-15T17:10:28.232Z,1.15
2023-04-15T17:12:58.464Z,1.05
2023-04-15T17:15:25.244Z,1.65
2023-04-15T17:17:51.786Z,1.83
2023-04-15T17:20:18.483Z,1.70
2023-04-15T17:22:45.707Z,1.67
2023-04-15T17:25:13.612Z,1.60
2023-04-15T17:27:42.448Z,1.95
2023-04-15T17:30:09.358Z,1.70
2023-04-15T17:32:35.913Z,1.90
2023-04-15T17:35:10.328Z,2.15
2023-04-15T17:37:37.150Z,2.42
2023-04-15T17:40:08.482Z,2.05
2023-04-15T17:42:35.318Z,2.13
2023-04-15T17:45:01.740Z,2.10
2023-04-15T17:47:28.329Z,2.17
2023-04-15T17:49:54.864Z,2.92
2023-04-15T17:52:21.338Z,2.80
2023-04-15T17:54:47.770Z,2.88
2023-04-15T17:57:14.413Z,2.30
2023-04-15T17:59:44.003Z,1.95
2023-04-15T18:02:12.983Z,2.10
2023-04-15T18:04:40.523Z,2.25
2023-04-15T18:07:07.054Z,2.53
2023-04-15T18:09:33.672Z,2.15
2023-04-15T18:12:02.954Z,2.22
2023-04-15T18:14:34.546Z,1.73
2023-04-15T18:17:05.574Z,2.03
2023-04-15T18:19:32.105Z,2.17
2023-04-15T18:22:01.078Z,1.75
2023-04-15T18:24:32.683Z,2.03
2023-04-15T18:27:01.968Z,2.03
2023-04-15T18:29:28.506Z,2.67
2023-04-15T18:31:55.058Z,2.70
2023-04-15T18:34:21.505Z,2.20
2023-04-15T18:36:48.008Z,2.47
2023-04-15T18:39:14.470Z,2.50
2023-04-15T18:41:40.862Z,2.25
2023-04-15T18:44:07.532Z,1.85
2023-04-15T18:46:34.063Z,2.00
2023-04-15T18:49:04.237Z,2.80
2023-04-15T18:51:30.861Z,2.10
2023-04-15T18:53:57.287Z,2.63
2023-04-15T18:56:23.953Z,3.10
2023-04-15T18:59:22.898Z,2.35
2023-04-15T19:01:37.086Z,2.70
2023-04-15T19:04:06.327Z,3.10
2023-04-15T19:06:32.770Z,2.38
2023-04-15T19:09:02.301Z,2.83
2023-04-15T19:11:28.700Z,2.60
2023-04-15T19:13:55.370Z,2.67
2023-04-15T19:16:21.821Z,3.00
2023-04-15T19:18:48.360Z,2.90
2023-04-15T19:21:15.817Z,2.83
2023-04-15T19:23:45.646Z,3.53
2023-04-15T19:26:12.118Z,3.20
2023-04-15T19:28:38.705Z,3.28
2023-04-15T19:31:05.725Z,3.78
2023-04-15T19:33:34.726Z,3.15
2023-04-15T19:36:03.245Z,3.35
2023-04-15T19:38:30.833Z,3.72
2023-04-15T19:40:58.164Z,4.55
2023-04-15T19:43:25.137Z,4.10
2023-04-15T19:45:56.802Z,3.47
2023-04-15T19:48:25.403Z,4.53
2023-04-15T19:50:51.870Z,3.92
2023-04-15T19:53:18.241Z,4.05
2023-04-15T19:55:44.730Z,3.88
2023-04-15T19:58:16.552Z,3.95
2023-04-15T20:00:48.127Z,4.35
2023-04-15T20:03:17.555Z,4.57
2023-04-15T20:05:46.447Z,4.78
2023-04-15T20:08:12.959Z,4.07
2023-04-15T20:10:39.451Z,4.68
2023-04-15T20:13:06.049Z,4.60
2023-04-15T20:15:32.532Z,5.05
2023-04-15T20:17:58.950Z,5.68
2023-04-15T20:20:26.602Z,5.00
2023-04-15T20:22:53.112Z,5.75
2023-04-15T20:25:19.523Z,5.18
2023-04-15T20:27:45.941Z,5.05
2023-04-15T20:30:12.387Z,5.40
2023-04-15T20:33:18.580Z,4.97
2023-04-15T20:36:25.238Z,4.85
2023-04-15T20:39:30.058Z,5.10
2023-04-15T20:42:39.432Z,4.53
2023-04-15T20:45:43.248Z,4.97
2023-04-15T20:48:47.072Z,5.70
2023-04-15T20:51:51.179Z,5.35
2023-04-15T20:54:55.597Z,5.80
2023-04-15T20:57:59.440Z,5.53
2023-04-15T21:01:03.763Z,6.03
2023-04-15T21:04:08.058Z,6.18
2023-04-15T21:07:12.059Z,5.72
2023-04-15T21:10:16.172Z,5.78
2023-04-15T21:12:42.640Z,5.90
2023-04-15T21:15:09.561Z,5.63
2023-04-15T21:17:38.913Z,5.35
2023-04-15T21:20:08.511Z,4.82
2023-04-15T21:22:34.884Z,5.53
2023-04-15T21:25:01.253Z,4.60
2023-04-15T21:27:27.670Z,6.35
2023-04-15T21:29:54.168Z,5.53
2023-04-15T21:32:20.873Z,5.50
2023-04-15T21:34:47.394Z,4.60
2023-04-15T21:37:13.901Z,5.13
2023-04-15T21:39:40.610Z,5.03
2023-04-15T21:42:10.335Z,4.78
2023-04-15T21:44:36.843Z,4.45
2023-04-15T21:47:03.269Z,4.90
2023-04-15T21:49:30.624Z,4.80
2023-04-15T21:52:00.996Z,4.60
2023-04-15T21:54:28.356Z,4.20
2023-04-15T21:56:54.785Z,4.72
2023-04-15T21:59:21.178Z,5.28
2023-04-15T22:01:47.740Z,4.75
2023-04-15T22:04:19.238Z,4.63
2023-04-15T22:06:46.305Z,4.20
2023-04-15T22:09:14.364Z,4.50
2023-04-15T22:11:41.394Z,5.10
2023-04-15T22:14:08.134Z,4.03
2023-04-15T22:16:34.808Z,4.50
2023-04-15T22:19:02.623Z,4.13
2023-04-15T22:21:29.014Z,4.75
2023-04-15T22:24:32.521Z,4.68
2023-04-15T22:26:44.023Z,4.32
2023-04-15T22:29:10.665Z,4.07
2023-04-15T22:31:37.108Z,4.05
2023-04-15T22:34:03.616Z,3.90
2023-04-15T22:36:31.582Z,4.40
2023-04-15T22:38:58.058Z,3.85
2023-04-15T22:41:24.918Z,3.67
2023-04-15T22:43:51.257Z,3.78
2023-04-15T22:46:17.666Z,3.30
2023-04-15T22:48:44.210Z,3.53
2023-04-15T22:51:10.624Z,3.25
2023-04-15T22:53:37.094Z,3.63
2023-04-15T22:56:03.571Z,3.33
2023-04-15T22:58:31.967Z,2.95
2023-04-15T23:00:59.096Z,4.07
2023-04-15T23:03:25.691Z,4.13
2023-04-15T23:05:54.859Z,3.58
2023-04-15T23:08:21.369Z,3.35
2023-04-15T23:10:48.021Z,3.47
2023-04-15T23:13:14.456Z,4.10
2023-04-15T23:15:40.937Z,3.45
2023-04-15T23:18:07.476Z,3.92
2023-04-15T23:20:34.040Z,3.58
2023-04-15T23:23:00.624Z,3.38
2023-04-15T23:25:27.078Z,3.80
2023-04-15T23:27:53.816Z,3.97
2023-04-15T23:30:22.585Z,4.32
2023-04-15T23:32:49.097Z,4.07
2023-04-15T23:35:18.497Z,4.00
2023-04-15T23:37:44.909Z,4.53
2023-04-15T23:40:11.931Z,4.32
2023-04-15T23:42:38.376Z,4.22
2023-04-15T23:45:05.361Z,4.40
2023-04-15T23:47:32.067Z,4.10
2023-04-15T23:50:00.836Z,4.47
2023-04-15T23:52:29.534Z,4.50
2023-04-15T23:54:56.040Z,4.50
2023-04-15T23:57:22.444Z,5.00
2023-04-15T23:59:48.875Z,4.30
